sensor_id;sensor_type;location;lat;lon;timestamp;pressure;altitude;pressure_sealevel;temperature;humidity
13593;BME280;6867;50.998;4.250;2024-01-07T00:00:52;101182.56;;;7.43;69.55
13593;BME280;6867;50.998;4.250;2024-01-07T00:03:19;101157.84;;;7.18;69.56
13593;BME280;6867;50.998;4.250;2024-01-07T00:05:47;101195.72;;;7.53;69.31
13593;BME280;6867;50.998;4.250;2024-01-07T00:08:14;101184.66;;;7.56;69.08
13593;BME280;6867;50.998;4.250;2024-01-07T00:10:40;101201.38;;;7.58;69.43
13593;BME280;6867;50.998;4.250;2024-01-07T00:13:07;101189.06;;;7.48;68.64
13593;BME280;6867;50.998;4.250;2024-01-07T00:15:34;101186.44;;;7.63;68.98
13593;BME280;6867;50.998;4.250;2024-01-07T00:18:00;101138.63;;;7.45;67.67
13593;BME280;6867;50.998;4.250;2024-01-07T00:20:27;101133.06;;;7.32;67.63
13593;BME280;6867;50.998;4.250;2024-01-07T00:22:55;101126.69;;;7.33;67.37
13593;BME280;6867;50.998;4.250;2024-01-07T00:25:22;101124.91;;;7.48;67.07
13593;BME280;6867;50.998;4.250;2024-01-07T00:27:49;101076.66;;;7.19;65.94
13593;BME280;6867;50.998;4.250;2024-01-07T00:30:18;101098.13;;;7.11;66.20
13593;BME280;6867;50.998;4.250;2024-01-07T00:32:45;101097.94;;;7.58;66.03
13593;BME280;6867;50.998;4.250;2024-01-07T00:35:11;101068.06;;;7.55;65.00
13593;BME280;6867;50.998;4.250;2024-01-07T00:37:38;101045.59;;;7.03;64.92
13593;BME280;6867;50.998;4.250;2024-01-07T00:40:07;101083.34;;;7.46;65.46
13593;BME280;6867;50.998;4.250;2024-01-07T00:42:34;101046.16;;;7.13;65.05
13593;BME280;6867;50.998;4.250;2024-01-07T00:45:01;101081.41;;;7.40;64.76
13593;BME280;6867;50.998;4.250;2024-01-07T00:47:28;101062.81;;;7.61;64.20
13593;BME280;6867;50.998;4.250;2024-01-07T00:49:55;101075.94;;;7.48;64.77
13593;BME280;6867;50.998;4.250;2024-01-07T00:52:21;101079.72;;;7.16;65.12
13593;BME280;6867;50.998;4.250;2024-01-07T00:54:48;101072.25;;;7.11;64.98
13593;BME280;6867;50.998;4.250;2024-01-07T00:57:17;101086.56;;;6.87;65.87
13593;BME280;6867;50.998;4.250;2024-01-07T00:59:43;101087.94;;;6.83;65.75
13593;BME280;6867;50.998;4.250;2024-01-07T01:02:10;101107.94;;;6.87;65.79
13593;BME280;6867;50.998;4.250;2024-01-07T01:04:38;101126.75;;;7.25;65.60
13593;BME280;6867;50.998;4.250;2024-01-07T01:07:05;101102.59;;;7.41;65.05
13593;BME280;6867;50.998;4.250;2024-01-07T01:09:32;101102.81;;;7.55;64.86
13593;BME280;6867;50.998;4.250;2024-01-07T01:11:59;101116.28;;;7.99;63.80
13593;BME280;6867;50.998;4.250;2024-01-07T01:14:27;101064.69;;;7.76;63.31
13593;BME280;6867;50.998;4.250;2024-01-07T01:16:54;101065.22;;;7.71;63.41
13593;BME280;6867;50.998;4.250;2024-01-07T01:19:20;101087.31;;;7.88;63.95
13593;BME280;6867;50.998;4.250;2024-01-07T01:21:47;101077.41;;;7.13;64.72
13593;BME280;6867;50.998;4.250;2024-01-07T01:24:14;101141.06;;;7.55;65.28
13593;BME280;6867;50.998;4.250;2024-01-07T01:26:40;101106.59;;;7.60;64.09
13593;BME280;6867;50.998;4.250;2024-01-07T01:29:07;101118.16;;;7.61;64.72
13593;BME280;6867;50.998;4.250;2024-01-07T01:31:35;101131.72;;;7.51;65.14
13593;BME280;6867;50.998;4.250;2024-01-07T01:34:02;101142.03;;;8.00;64.28
13593;BME280;6867;50.998;4.250;2024-01-07T01:36:30;101136.75;;;7.69;64.70
13593;BME280;6867;50.998;4.250;2024-01-07T01:38:57;101160.19;;;7.44;65.67
13593;BME280;6867;50.998;4.250;2024-01-07T01:41:24;101106.91;;;7.42;64.29
13593;BME280;6867;50.998;4.250;2024-01-07T01:43:50;101136.25;;;8.11;63.29
13593;BME280;6867;50.998;4.250;2024-01-07T01:46:17;101131.13;;;8.02;64.04
13593;BME280;6867;50.998;4.250;2024-01-07T01:48:48;101121.09;;;8.18;62.64
13593;BME280;6867;50.998;4.250;2024-01-07T01:51:15;101078.91;;;7.91;63.38
13593;BME280;6867;50.998;4.250;2024-01-07T01:53:42;101134.66;;;8.32;63.34
13593;BME280;6867;50.998;4.250;2024-01-07T01:56:10;101130.66;;;7.98;63.36
13593;BME280;6867;50.998;4.250;2024-01-07T01:58:37;101127.44;;;7.88;63.66
13593;BME280;6867;50.998;4.250;2024-01-07T02:01:04;101137.00;;;8.20;63.56
13593;BME280;6867;50.998;4.250;2024-01-07T02:03:31;101143.44;;;8.26;62.92
13593;BME280;6867;50.998;4.250;2024-01-07T02:05:59;101129.13;;;8.18;63.00
13593;BME280;6867;50.998;4.250;2024-01-07T02:08:26;101138.81;;;8.05;63.14
13593;BME280;6867;50.998;4.250;2024-01-07T02:10:53;101157.09;;;8.16;63.78
13593;BME280;6867;50.998;4.250;2024-01-07T02:13:19;101137.28;;;7.87;63.68
13593;BME280;6867;50.998;4.250;2024-01-07T02:15:46;101144.66;;;7.85;64.27
13593;BME280;6867;50.998;4.250;2024-01-07T02:18:13;101149.16;;;8.08;63.43
13593;BME280;6867;50.998;4.250;2024-01-07T02:20:40;101128.22;;;7.73;63.25
13593;BME280;6867;50.998;4.250;2024-01-07T02:23:08;101143.00;;;7.84;63.48
13593;BME280;6867;50.998;4.250;2024-01-07T02:25:36;101134.53;;;7.58;63.83
13593;BME280;6867;50.998;4.250;2024-01-07T02:28:04;101151.28;;;7.52;64.45
13593;BME280;6867;50.998;4.250;2024-01-07T02:30:31;101155.31;;;7.70;63.54
13593;BME280;6867;50.998;4.250;2024-01-07T02:33:01;101139.84;;;7.12;64.44
13593;BME280;6867;50.998;4.250;2024-01-07T02:35:27;101180.59;;;6.74;65.67
13593;BME280;6867;50.998;4.250;2024-01-07T02:37:54;101160.41;;;6.72;65.30
13593;BME280;6867;50.998;4.250;2024-01-07T02:40:21;101200.81;;;7.08;65.57
13593;BME280;6867;50.998;4.250;2024-01-07T02:42:49;101170.50;;;6.45;66.34
13593;BME280;6867;50.998;4.250;2024-01-07T02:45:15;101215.06;;;6.29;67.32
13593;BME280;6867;50.998;4.250;2024-01-07T02:47:42;101204.19;;;6.46;66.43
13593;BME280;6867;50.998;4.250;2024-01-07T02:50:09;101211.53;;;6.44;66.62
13593;BME280;6867;50.998;4.250;2024-01-07T02:52:36;101231.63;;;6.80;66.39
13593;BME280;6867;50.998;4.250;2024-01-07T02:55:03;101193.84;;;6.43;66.52
13593;BME280;6867;50.998;4.250;2024-01-07T02:57:29;101215.66;;;6.63;66.33
13593;BME280;6867;50.998;4.250;2024-01-07T02:59:57;101191.63;;;6.71;65.70
13593;BME280;6867;50.998;4.250;2024-01-07T03:02:24;101191.81;;;6.62;66.14
13593;BME280;6867;50.998;4.250;2024-01-07T03:04:51;101213.03;;;6.47;66.78
13593;BME280;6867;50.998;4.250;2024-01-07T03:07:17;101216.94;;;6.84;66.52
13593;BME280;6867;50.998;4.250;2024-01-07T03:09:44;101222.13;;;6.77;65.99
13593;BME280;6867;50.998;4.250;2024-01-07T03:12:11;101223.50;;;6.73;66.38
13593;BME280;6867;50.998;4.250;2024-01-07T03:14:37;101212.84;;;6.65;66.13
13593;BME280;6867;50.998;4.250;2024-01-07T03:17:05;101207.53;;;6.57;65.98
13593;BME280;6867;50.998;4.250;2024-01-07T03:19:35;101215.38;;;6.50;66.44
13593;BME280;6867;50.998;4.250;2024-01-07T03:22:01;101234.84;;;6.67;66.06
13593;BME280;6867;50.998;4.250;2024-01-07T03:24:28;101241.81;;;6.84;65.96
13593;BME280;6867;50.998;4.250;2024-01-07T03:26:55;101196.34;;;6.53;65.44
13593;BME280;6867;50.998;4.250;2024-01-07T03:29:22;101214.03;;;6.46;66.16
13593;BME280;6867;50.998;4.250;2024-01-07T03:31:48;101207.88;;;6.45;65.92
13593;BME280;6867;50.998;4.250;2024-01-07T03:34:17;101233.88;;;6.52;65.96
13593;BME280;6867;50.998;4.250;2024-01-07T03:36:44;101226.03;;;6.58;65.82
13593;BME280;6867;50.998;4.250;2024-01-07T03:39:10;101224.22;;;6.26;66.48
13593;BME280;6867;50.998;4.250;2024-01-07T03:41:37;101237.25;;;6.29;66.57
13593;BME280;6867;50.998;4.250;2024-01-07T03:44:04;101226.91;;;6.10;66.86
13593;BME280;6867;50.998;4.250;2024-01-07T03:46:31;101249.19;;;6.66;65.87
13593;BME280;6867;50.998;4.250;2024-01-07T03:48:57;101223.25;;;6.27;66.61
13593;BME280;6867;50.998;4.250;2024-01-07T03:51:25;101256.00;;;6.77;66.15
13593;BME280;6867;50.998;4.250;2024-01-07T03:53:52;101244.06;;;7.12;65.25
13593;BME280;6867;50.998;4.250;2024-01-07T03:56:18;101230.88;;;7.02;64.78
13593;BME280;6867;50.998;4.250;2024-01-07T03:58:45;101241.53;;;7.10;64.94
13593;BME280;6867;50.998;4.250;2024-01-07T04:01:17;101254.75;;;7.12;65.10
13593;BME280;6867;50.998;4.250;2024-01-07T04:03:44;101239.63;;;7.27;64.95
13593;BME280;6867;50.998;4.250;2024-01-07T04:06:10;101235.88;;;7.05;65.05
13593;BME280;6867;50.998;4.250;2024-01-07T04:08:38;101258.09;;;6.97;65.43
13593;BME280;6867;50.998;4.250;2024-01-07T04:11:05;101238.22;;;6.61;65.62
13593;BME280;6867;50.998;4.250;2024-01-07T04:13:32;101258.16;;;6.81;65.72
13593;BME280;6867;50.998;4.250;2024-01-07T04:15:58;101247.09;;;7.01;64.94
13593;BME280;6867;50.998;4.250;2024-01-07T04:18:25;101239.66;;;6.80;64.93
13593;BME280;6867;50.998;4.250;2024-01-07T04:20:52;101243.97;;;6.81;65.14
13593;BME280;6867;50.998;4.250;2024-01-07T04:23:18;101257.69;;;6.78;65.49
13593;BME280;6867;50.998;4.250;2024-01-07T04:25:47;101245.63;;;6.90;64.73
13593;BME280;6867;50.998;4.250;2024-01-07T04:28:14;101242.47;;;6.86;65.11
13593;BME280;6867;50.998;4.250;2024-01-07T04:30:40;101263.19;;;6.76;65.27
13593;BME280;6867;50.998;4.250;2024-01-07T04:33:07;101253.22;;;7.09;65.03
13593;BME280;6867;50.998;4.250;2024-01-07T04:35:34;101238.09;;;7.33;63.87
13593;BME280;6867;50.998;4.250;2024-01-07T04:38:01;101246.63;;;7.36;64.20
13593;BME280;6867;50.998;4.250;2024-01-07T04:40:27;101255.75;;;7.11;64.65
13593;BME280;6867;50.998;4.250;2024-01-07T04:42:55;101257.66;;;6.94;65.11
13593;BME280;6867;50.998;4.250;2024-01-07T04:45:22;101269.41;;;7.16;64.85
13593;BME280;6867;50.998;4.250;2024-01-07T04:47:48;101264.38;;;7.52;64.06
13593;BME280;6867;50.998;4.250;2024-01-07T04:50:15;101257.72;;;7.48;64.02
13593;BME280;6867;50.998;4.250;2024-01-07T04:52:45;101248.66;;;7.57;63.79
13593;BME280;6867;50.998;4.250;2024-01-07T04:55:11;101241.25;;;7.67;63.49
13593;BME280;6867;50.998;4.250;2024-01-07T04:57:38;101263.44;;;6.97;64.88
13593;BME280;6867;50.998;4.250;2024-01-07T05:00:07;101274.53;;;6.86;65.57
13593;BME280;6867;50.998;4.250;2024-01-07T05:02:34;101275.91;;;6.66;65.96
13593;BME280;6867;50.998;4.250;2024-01-07T05:05:01;101287.72;;;6.80;65.58
13593;BME280;6867;50.998;4.250;2024-01-07T05:07:27;101293.88;;;6.80;65.85
13593;BME280;6867;50.998;4.250;2024-01-07T05:09:54;101295.31;;;7.15;64.90
13593;BME280;6867;50.998;4.250;2024-01-07T05:12:20;101266.78;;;7.08;64.72
13593;BME280;6867;50.998;4.250;2024-01-07T05:14:47;101281.34;;;7.36;64.04
13593;BME280;6867;50.998;4.250;2024-01-07T05:17:15;101285.72;;;7.29;64.78
13593;BME280;6867;50.998;4.250;2024-01-07T05:19:42;101287.44;;;7.14;65.04
13593;BME280;6867;50.998;4.250;2024-01-07T05:22:09;101309.81;;;7.21;64.96
13593;BME280;6867;50.998;4.250;2024-01-07T05:24:36;101314.41;;;7.35;65.06
13593;BME280;6867;50.998;4.250;2024-01-07T05:27:03;101316.75;;;7.38;65.24
13593;BME280;6867;50.998;4.250;2024-01-07T05:29:31;101324.19;;;7.12;65.37
13593;BME280;6867;50.998;4.250;2024-01-07T05:31:58;101339.16;;;7.29;65.25
13593;BME280;6867;50.998;4.250;2024-01-07T05:34:27;101337.91;;;7.48;65.15
13593;BME280;6867;50.998;4.250;2024-01-07T05:36:53;101342.09;;;7.51;65.08
13593;BME280;6867;50.998;4.250;2024-01-07T05:39:20;101351.69;;;7.37;65.33
13593;BME280;6867;50.998;4.250;2024-01-07T05:41:47;101360.66;;;7.44;65.76
13593;BME280;6867;50.998;4.250;2024-01-07T05:44:13;101374.47;;;6.92;66.44
13593;BME280;6867;50.998;4.250;2024-01-07T05:46:40;101387.31;;;6.96;66.55
13593;BME280;6867;50.998;4.250;2024-01-07T05:49:07;101378.50;;;6.71;66.88
13593;BME280;6867;50.998;4.250;2024-01-07T05:51:39;101399.34;;;6.52;67.44
13593;BME280;6867;50.998;4.250;2024-01-07T05:54:06;101408.19;;;6.44;67.75
13593;BME280;6867;50.998;4.250;2024-01-07T05:56:32;101401.00;;;6.77;66.98
13593;BME280;6867;50.998;4.250;2024-01-07T05:59:04;101375.19;;;6.53;66.90
13593;BME280;6867;50.998;4.250;2024-01-07T06:01:31;101394.53;;;6.71;66.81
13593;BME280;6867;50.998;4.250;2024-01-07T06:03:57;101407.22;;;6.86;67.02
13593;BME280;6867;50.998;4.250;2024-01-07T06:06:24;101399.69;;;6.89;66.67
13593;BME280;6867;50.998;4.250;2024-01-07T06:08:52;101420.38;;;6.79;66.85
13593;BME280;6867;50.998;4.250;2024-01-07T06:11:19;101434.75;;;6.62;67.63
13593;BME280;6867;50.998;4.250;2024-01-07T06:13:46;101400.34;;;6.59;67.10
13593;BME280;6867;50.998;4.250;2024-01-07T06:16:12;101416.38;;;6.75;66.98
13593;BME280;6867;50.998;4.250;2024-01-07T06:18:39;101428.41;;;7.04;66.50
13593;BME280;6867;50.998;4.250;2024-01-07T06:21:06;101422.72;;;6.98;66.71
13593;BME280;6867;50.998;4.250;2024-01-07T06:23:33;101435.91;;;6.59;67.56
13593;BME280;6867;50.998;4.250;2024-01-07T06:26:03;101456.44;;;6.99;66.92
13593;BME280;6867;50.998;4.250;2024-01-07T06:28:29;101452.25;;;6.72;67.10
13593;BME280;6867;50.998;4.250;2024-01-07T06:30:56;101461.59;;;6.77;67.41
13593;BME280;6867;50.998;4.250;2024-01-07T06:33:23;101466.78;;;6.70;67.48
13593;BME280;6867;50.998;4.250;2024-01-07T06:35:49;101474.44;;;6.81;67.33
13593;BME280;6867;50.998;4.250;2024-01-07T06:38:16;101448.88;;;6.38;67.69
13593;BME280;6867;50.998;4.250;2024-01-07T06:40:42;101482.09;;;6.60;67.58
13593;BME280;6867;50.998;4.250;2024-01-07T06:43:11;101469.59;;;6.52;67.94
13593;BME280;6867;50.998;4.250;2024-01-07T06:45:37;101519.88;;;6.89;67.76
13593;BME280;6867;50.998;4.250;2024-01-07T06:48:05;101495.00;;;7.05;67.04
13593;BME280;6867;50.998;4.250;2024-01-07T06:50:32;101504.03;;;7.37;66.85
13593;BME280;6867;50.998;4.250;2024-01-07T06:52:58;101489.81;;;7.44;66.69
13593;BME280;6867;50.998;4.250;2024-01-07T06:55:25;101476.13;;;6.66;67.45
13593;BME280;6867;50.998;4.250;2024-01-07T06:57:52;101510.88;;;6.82;67.68
13593;BME280;6867;50.998;4.250;2024-01-07T07:00:20;101503.19;;;6.79;67.77
13593;BME280;6867;50.998;4.250;2024-01-07T07:02:47;101525.88;;;6.83;67.85
13593;BME280;6867;50.998;4.250;2024-01-07T07:05:14;101530.22;;;6.92;67.68
13593;BME280;6867;50.998;4.250;2024-01-07T07:07:41;101519.56;;;7.01;67.62
13593;BME280;6867;50.998;4.250;2024-01-07T07:10:08;101516.06;;;7.08;67.22
13593;BME280;6867;50.998;4.250;2024-01-07T07:12:35;101520.22;;;7.27;66.98
13593;BME280;6867;50.998;4.250;2024-01-07T07:15:02;101516.88;;;7.09;67.50
13593;BME280;6867;50.998;4.250;2024-01-07T07:17:30;101554.44;;;6.99;68.11
13593;BME280;6867;50.998;4.250;2024-01-07T07:19:56;101526.53;;;6.77;68.11
13593;BME280;6867;50.998;4.250;2024-01-07T07:22:23;101559.69;;;6.58;68.72
13593;BME280;6867;50.998;4.250;2024-01-07T07:24:50;101573.94;;;6.75;68.57
13593;BME280;6867;50.998;4.250;2024-01-07T07:27:17;101582.88;;;6.58;68.77
13593;BME280;6867;50.998;4.250;2024-01-07T07:29:43;101581.56;;;6.62;69.12
13593;BME280;6867;50.998;4.250;2024-01-07T07:32:10;101577.78;;;6.38;69.51
13593;BME280;6867;50.998;4.250;2024-01-07T07:34:38;101592.25;;;6.62;68.85
13593;BME280;6867;50.998;4.250;2024-01-07T07:37:05;101598.22;;;6.56;69.47
13593;BME280;6867;50.998;4.250;2024-01-07T07:39:31;101603.69;;;6.46;69.92
13593;BME280;6867;50.998;4.250;2024-01-07T07:41:58;101584.28;;;6.28;69.48
13593;BME280;6867;50.998;4.250;2024-01-07T07:44:25;101602.03;;;6.45;69.64
13593;BME280;6867;50.998;4.250;2024-01-07T07:46:51;101571.88;;;6.18;69.69
13593;BME280;6867;50.998;4.250;2024-01-07T07:49:18;101632.47;;;6.34;70.02
13593;BME280;6867;50.998;4.250;2024-01-07T07:51:46;101616.03;;;6.47;69.51
13593;BME280;6867;50.998;4.250;2024-01-07T07:54:13;101625.63;;;6.66;69.48
13593;BME280;6867;50.998;4.250;2024-01-07T07:56:40;101612.41;;;6.56;68.91
13593;BME280;6867;50.998;4.250;2024-01-07T07:59:06;101598.16;;;6.39;69.04
13593;BME280;6867;50.998;4.250;2024-01-07T08:01:34;101606.13;;;6.05;69.62
13593;BME280;6867;50.998;4.250;2024-01-07T08:04:00;101592.75;;;6.23;69.13
13593;BME280;6867;50.998;4.250;2024-01-07T08:06:28;101628.31;;;6.32;69.82
13593;BME280;6867;50.998;4.250;2024-01-07T08:08:56;101646.19;;;6.39;69.83
13593;BME280;6867;50.998;4.250;2024-01-07T08:11:22;101636.84;;;6.69;69.41
13593;BME280;6867;50.998;4.250;2024-01-07T08:13:50;101601.19;;;6.44;69.18
13593;BME280;6867;50.998;4.250;2024-01-07T08:16:16;101609.22;;;6.18;69.34
13593;BME280;6867;50.998;4.250;2024-01-07T08:18:44;101627.16;;;6.34;69.75
13593;BME280;6867;50.998;4.250;2024-01-07T08:21:10;101604.88;;;5.91;69.79
13593;BME280;6867;50.998;4.250;2024-01-07T08:23:37;101638.47;;;5.84;70.63
13593;BME280;6867;50.998;4.250;2024-01-07T08:26:05;101667.13;;;6.00;71.08
13593;BME280;6867;50.998;4.250;2024-01-07T08:28:32;101631.72;;;6.16;69.85
13593;BME280;6867;50.998;4.250;2024-01-07T08:30:58;101643.56;;;6.47;69.87
13593;BME280;6867;50.998;4.250;2024-01-07T08:33:25;101633.97;;;6.63;69.15
13593;BME280;6867;50.998;4.250;2024-01-07T08:35:52;101653.31;;;6.57;69.36
13593;BME280;6867;50.998;4.250;2024-01-07T08:38:18;101670.00;;;6.33;70.47
13593;BME280;6867;50.998;4.250;2024-01-07T08:40:45;101668.44;;;6.56;69.65
13593;BME280;6867;50.998;4.250;2024-01-07T08:43:13;101657.13;;;6.54;69.60
13593;BME280;6867;50.998;4.250;2024-01-07T08:45:40;101661.66;;;6.62;69.54
13593;BME280;6867;50.998;4.250;2024-01-07T08:48:07;101652.28;;;6.23;70.00
13593;BME280;6867;50.998;4.250;2024-01-07T08:50:34;101638.47;;;6.02;70.47
13593;BME280;6867;50.998;4.250;2024-01-07T08:53:01;101651.75;;;5.76;70.54
13593;BME280;6867;50.998;4.250;2024-01-07T08:55:28;101681.09;;;6.46;70.19
13593;BME280;6867;50.998;4.250;2024-01-07T08:57:54;101661.47;;;6.29;70.17
13593;BME280;6867;50.998;4.250;2024-01-07T09:00:23;101673.56;;;6.41;70.05
13593;BME280;6867;50.998;4.250;2024-01-07T09:02:52;101660.75;;;6.19;70.18
13593;BME280;6867;50.998;4.250;2024-01-07T09:05:18;101667.94;;;6.87;68.93
13593;BME280;6867;50.998;4.250;2024-01-07T09:07:45;101637.00;;;6.76;68.08
13593;BME280;6867;50.998;4.250;2024-01-07T09:10:12;101645.03;;;6.84;68.04
13593;BME280;6867;50.998;4.250;2024-01-07T09:12:38;101638.81;;;6.67;68.07
13593;BME280;6867;50.998;4.250;2024-01-07T09:15:06;101634.19;;;6.43;67.97
13593;BME280;6867;50.998;4.250;2024-01-07T09:17:36;101645.41;;;6.89;67.34
13593;BME280;6867;50.998;4.250;2024-01-07T09:20:03;101645.88;;;6.85;67.50
13593;BME280;6867;50.998;4.250;2024-01-07T09:22:32;101646.00;;;6.67;67.34
13593;BME280;6867;50.998;4.250;2024-01-07T09:24:59;101649.59;;;6.49;67.85
13593;BME280;6867;50.998;4.250;2024-01-07T09:27:26;101685.66;;;6.54;68.44
13593;BME280;6867;50.998;4.250;2024-01-07T09:29:53;101672.25;;;6.45;68.15
13593;BME280;6867;50.998;4.250;2024-01-07T09:32:19;101674.06;;;6.79;67.28
13593;BME280;6867;50.998;4.250;2024-01-07T09:34:47;101690.53;;;6.66;68.10
13593;BME280;6867;50.998;4.250;2024-01-07T09:37:14;101680.34;;;6.62;67.97
13593;BME280;6867;50.998;4.250;2024-01-07T09:39:41;101667.09;;;6.86;67.25
13593;BME280;6867;50.998;4.250;2024-01-07T09:42:12;101647.09;;;6.90;66.53
13593;BME280;6867;50.998;4.250;2024-01-07T09:44:39;101639.22;;;6.46;66.94
13593;BME280;6867;50.998;4.250;2024-01-07T09:47:10;101668.00;;;6.35;68.08
13593;BME280;6867;50.998;4.250;2024-01-07T09:49:37;101693.09;;;6.16;68.34
13593;BME280;6867;50.998;4.250;2024-01-07T09:52:07;101693.38;;;6.65;67.89
13593;BME280;6867;50.998;4.250;2024-01-07T09:54:35;101670.59;;;6.87;67.09
13593;BME280;6867;50.998;4.250;2024-01-07T09:57:03;101680.94;;;6.47;67.54
13593;BME280;6867;50.998;4.250;2024-01-07T09:59:32;101688.75;;;6.41;67.17
13593;BME280;6867;50.998;4.250;2024-01-07T10:01:59;101683.09;;;6.44;67.15
13593;BME280;6867;50.998;4.250;2024-01-07T10:04:26;101654.56;;;6.18;67.13
13593;BME280;6867;50.998;4.250;2024-01-07T10:06:53;101685.28;;;6.48;67.24
13593;BME280;6867;50.998;4.250;2024-01-07T10:09:22;101675.97;;;6.53;66.82
13593;BME280;6867;50.998;4.250;2024-01-07T10:11:49;101664.41;;;6.44;66.80
13593;BME280;6867;50.998;4.250;2024-01-07T10:14:16;101679.66;;;6.60;66.60
13593;BME280;6867;50.998;4.250;2024-01-07T10:16:43;101662.78;;;7.02;65.57
13593;BME280;6867;50.998;4.250;2024-01-07T10:19:10;101640.22;;;6.88;65.18
13593;BME280;6867;50.998;4.250;2024-01-07T10:21:36;101642.81;;;6.63;65.59
13593;BME280;6867;50.998;4.250;2024-01-07T10:24:10;101657.59;;;5.97;66.69
13593;BME280;6867;50.998;4.250;2024-01-07T10:26:39;101682.31;;;5.82;67.19
13593;BME280;6867;50.998;4.250;2024-01-07T10:29:06;101690.56;;;6.40;66.83
13593;BME280;6867;50.998;4.250;2024-01-07T10:31:34;101693.69;;;6.62;66.57
13593;BME280;6867;50.998;4.250;2024-01-07T10:34:00;101693.84;;;6.60;66.39
13593;BME280;6867;50.998;4.250;2024-01-07T10:36:29;101643.84;;;5.66;67.26
13593;BME280;6867;50.998;4.250;2024-01-07T10:38:56;101689.97;;;6.55;66.30
13593;BME280;6867;50.998;4.250;2024-01-07T10:41:24;101640.06;;;6.47;65.26
13593;BME280;6867;50.998;4.250;2024-01-07T10:43:53;101677.31;;;6.57;65.83
13593;BME280;6867;50.998;4.250;2024-01-07T10:46:20;101646.75;;;6.51;65.23
13593;BME280;6867;50.998;4.250;2024-01-07T10:48:52;101647.16;;;6.04;66.12
13593;BME280;6867;50.998;4.250;2024-01-07T10:51:20;101679.25;;;6.46;65.61
13593;BME280;6867;50.998;4.250;2024-01-07T10:53:51;101664.50;;;6.34;65.82
13593;BME280;6867;50.998;4.250;2024-01-07T10:56:22;101686.38;;;6.72;65.34
13593;BME280;6867;50.998;4.250;2024-01-07T10:58:53;101670.38;;;6.38;65.84
13593;BME280;6867;50.998;4.250;2024-01-07T11:01:20;101681.16;;;6.96;65.12
13593;BME280;6867;50.998;4.250;2024-01-07T11:03:56;101640.38;;;6.78;64.60
13593;BME280;6867;50.998;4.250;2024-01-07T11:06:28;101652.38;;;6.40;65.03
13593;BME280;6867;50.998;4.250;2024-01-07T11:09:02;101658.88;;;6.80;64.57
13593;BME280;6867;50.998;4.250;2024-01-07T11:11:35;101676.53;;;7.07;64.23
13593;BME280;6867;50.998;4.250;2024-01-07T11:14:35;101678.09;;;6.83;64.86
13593;BME280;6867;50.998;4.250;2024-01-07T11:17:03;101650.56;;;6.83;64.16
13593;BME280;6867;50.998;4.250;2024-01-07T11:19:30;101648.22;;;6.80;64.30
13593;BME280;6867;50.998;4.250;2024-01-07T11:22:24;101638.75;;;6.51;64.33
13593;BME280;6867;50.998;4.250;2024-01-07T11:24:53;101648.31;;;6.62;64.47
13593;BME280;6867;50.998;4.250;2024-01-07T11:27:21;101621.09;;;6.24;64.37
13593;BME280;6867;50.998;4.250;2024-01-07T11:30:01;101605.31;;;6.73;63.47
13593;BME280;6867;50.998;4.250;2024-01-07T11:32:30;101624.34;;;6.78;63.58
13593;BME280;6867;50.998;4.250;2024-01-07T11:34:56;101613.63;;;6.28;64.01
13593;BME280;6867;50.998;4.250;2024-01-07T11:37:25;101647.53;;;6.78;64.04
13593;BME280;6867;50.998;4.250;2024-01-07T11:39:55;101565.66;;;6.44;62.77
13593;BME280;6867;50.998;4.250;2024-01-07T11:42:22;101602.84;;;6.88;63.03
13593;BME280;6867;50.998;4.250;2024-01-07T11:44:50;101582.31;;;6.38;63.63
13593;BME280;6867;50.998;4.250;2024-01-07T11:47:21;101614.72;;;6.51;63.54
13593;BME280;6867;50.998;4.250;2024-01-07T11:49:48;101613.66;;;6.10;64.15
13593;BME280;6867;50.998;4.250;2024-01-07T11:52:15;101630.69;;;6.85;62.96
13593;BME280;6867;50.998;4.250;2024-01-07T11:54:42;101617.97;;;6.29;63.15
13593;BME280;6867;50.998;4.250;2024-01-07T11:57:10;101639.84;;;6.74;63.11
13593;BME280;6867;50.998;4.250;2024-01-07T11:59:37;101577.25;;;6.69;62.26
13593;BME280;6867;50.998;4.250;2024-01-07T12:02:04;101583.72;;;6.58;62.79
13593;BME280;6867;50.998;4.250;2024-01-07T12:04:32;101604.75;;;6.61;63.01
13593;BME280;6867;50.998;4.250;2024-01-07T12:07:01;101618.25;;;6.26;63.76
13593;BME280;6867;50.998;4.250;2024-01-07T12:09:29;101596.34;;;6.14;63.35
13593;BME280;6867;50.998;4.250;2024-01-07T12:11:55;101620.06;;;6.51;63.19
13593;BME280;6867;50.998;4.250;2024-01-07T12:14:22;101605.34;;;6.47;62.84
13593;BME280;6867;50.998;4.250;2024-01-07T12:16:49;101568.25;;;6.28;62.35
13593;BME280;6867;50.998;4.250;2024-01-07T12:19:16;101611.66;;;6.80;62.80
13593;BME280;6867;50.998;4.250;2024-01-07T12:21:46;101592.16;;;6.88;62.19
13593;BME280;6867;50.998;4.250;2024-01-07T12:24:14;101613.72;;;7.19;61.67
13593;BME280;6867;50.998;4.250;2024-01-07T12:26:40;101610.59;;;7.15;61.76
13593;BME280;6867;50.998;4.250;2024-01-07T12:29:08;101546.06;;;6.19;62.56
13593;BME280;6867;50.998;4.250;2024-01-07T12:31:41;101598.28;;;6.30;62.99
13593;BME280;6867;50.998;4.250;2024-01-07T12:34:09;101617.44;;;6.25;63.37
13593;BME280;6867;50.998;4.250;2024-01-07T12:36:36;101602.47;;;6.32;62.70
13593;BME280;6867;50.998;4.250;2024-01-07T12:39:04;101598.84;;;6.41;62.90
13593;BME280;6867;50.998;4.250;2024-01-07T12:41:31;101605.00;;;6.92;61.99
13593;BME280;6867;50.998;4.250;2024-01-07T12:43:57;101610.13;;;6.69;62.45
13593;BME280;6867;50.998;4.250;2024-01-07T12:46:27;101612.81;;;6.69;62.47
13593;BME280;6867;50.998;4.250;2024-01-07T12:48:54;101647.63;;;7.18;62.08
13593;BME280;6867;50.998;4.250;2024-01-07T12:51:20;101622.84;;;6.84;61.85
13593;BME280;6867;50.998;4.250;2024-01-07T12:53:47;101593.44;;;6.76;61.80
13593;BME280;6867;50.998;4.250;2024-01-07T12:56:16;101627.41;;;6.99;61.73
13593;BME280;6867;50.998;4.250;2024-01-07T12:58:42;101603.06;;;7.11;61.47
13593;BME280;6867;50.998;4.250;2024-01-07T13:01:09;101586.16;;;6.86;61.32
13593;BME280;6867;50.998;4.250;2024-01-07T13:03:36;101639.34;;;7.62;61.40
13593;BME280;6867;50.998;4.250;2024-01-07T13:06:03;101641.34;;;7.93;60.29
13593;BME280;6867;50.998;4.250;2024-01-07T13:08:29;101607.41;;;7.77;59.77
13593;BME280;6867;50.998;4.250;2024-01-07T13:10:56;101610.25;;;7.27;60.74